createdAt,value
2022-12-12T00:01:04.699Z,0.67
2022-12-12T00:05:08.113Z,0.72
2022-12-12T00:09:10.358Z,0.74
2022-12-12T00:13:12.404Z,0.77
2022-12-12T00:17:14.430Z,0.90
2022-12-12T00:21:19.728Z,0.99
2022-12-12T00:25:21.997Z,1.07
2022-12-12T00:29:24.058Z,1.07
2022-12-12T00:33:26.337Z,1.06
2022-12-12T00:37:28.384Z,1.02
2022-12-12T00:41:30.485Z,1.11
2022-12-12T00:45:32.576Z,1.18
2022-12-12T00:49:35.039Z,1.23
2022-12-12T00:53:38.012Z,1.14
2022-12-12T00:57:40.049Z,1.04
2022-12-12T01:01:42.082Z,1.10
2022-12-12T01:05:44.410Z,1.12
2022-12-12T01:09:46.409Z,1.06
2022-12-12T01:13:50.485Z,1.08
2022-12-12T01:17:53.184Z,1.15
2022-12-12T01:21:55.627Z,1.23
2022-12-12T01:26:02.240Z,1.31
2022-12-12T01:30:05.855Z,1.32
2022-12-12T01:34:08.158Z,1.30
2022-12-12T01:38:10.176Z,1.20
2022-12-12T01:42:14.445Z,1.12
2022-12-12T01:46:33.411Z,1.07
2022-12-12T01:50:35.638Z,0.97
2022-12-12T01:54:45.234Z,1.02
2022-12-12T01:58:49.491Z,1.14
2022-12-12T02:02:53.707Z,1.08
2022-12-12T02:06:56.504Z,1.05
2022-12-12T02:10:58.826Z,1.10
2022-12-12T02:15:02.061Z,1.20
2022-12-12T02:19:52.292Z,1.20
2022-12-12T02:24:26.195Z,1.25
2022-12-12T02:29:01.620Z,1.21
2022-12-12T02:33:13.624Z,1.15
2022-12-12T02:37:26.461Z,1.16
2022-12-12T02:41:32.724Z,1.17
2022-12-12T02:45:56.602Z,1.17
2022-12-12T02:50:13.275Z,1.10
2022-12-12T02:54:18.351Z,1.08
2022-12-12T02:58:20.349Z,1.08
2022-12-12T03:02:37.632Z,1.12
2022-12-12T03:07:27.712Z,1.14
2022-12-12T03:12:10.630Z,0.99
2022-12-12T03:16:32.560Z,0.85
2022-12-12T03:21:06.703Z,0.85
2022-12-12T03:25:36.689Z,0.80
2022-12-12T03:29:48.544Z,0.96
2022-12-12T03:33:56.993Z,1.12
2022-12-12T03:38:06.067Z,1.21
2022-12-12T03:42:35.780Z,1.16
2022-12-12T03:47:17.504Z,1.14
2022-12-12T03:51:29.105Z,1.19
2022-12-12T03:55:47.241Z,1.25
2022-12-12T03:59:54.327Z,1.21
2022-12-12T04:04:03.034Z,1.15
2022-12-12T04:08:11.408Z,1.05
2022-12-12T04:12:41.247Z,1.09
2022-12-12T04:16:46.755Z,1.22
2022-12-12T04:21:21.211Z,1.35
2022-12-12T04:26:03.663Z,1.41
2022-12-12T04:30:08.340Z,1.37
2022-12-12T04:34:19.364Z,1.40
2022-12-12T04:38:23.916Z,1.52
2022-12-12T04:42:29.319Z,1.50
2022-12-12T04:46:33.251Z,1.46
2022-12-12T04:50:37.187Z,1.38
2022-12-12T04:54:49.342Z,1.39
2022-12-12T04:58:51.571Z,1.35
2022-12-12T05:03:00.872Z,1.31
2022-12-12T05:07:09.141Z,1.14
2022-12-12T05:11:12.011Z,1.18
2022-12-12T05:15:16.481Z,1.14
2022-12-12T05:19:18.674Z,1.14
2022-12-12T05:23:20.689Z,1.14
2022-12-12T05:27:22.680Z,1.10
2022-12-12T05:31:24.672Z,1.08
2022-12-12T05:35:26.987Z,1.10
2022-12-12T05:39:28.957Z,1.11
2022-12-12T05:43:31.245Z,1.09
2022-12-12T05:47:33.506Z,1.14
2022-12-12T05:51:36.711Z,1.20
2022-12-12T05:55:38.761Z,1.20
2022-12-12T05:59:40.792Z,1.18
2022-12-12T06:03:42.822Z,1.18
2022-12-12T06:07:44.860Z,1.22
2022-12-12T06:11:46.895Z,1.29
2022-12-12T06:15:49.007Z,1.26
2022-12-12T06:19:52.377Z,1.20
2022-12-12T06:23:54.451Z,1.16
2022-12-12T06:27:57.383Z,1.13
2022-12-12T06:32:01.209Z,1.11
2022-12-12T06:36:13.900Z,1.12
2022-12-12T06:40:17.116Z,1.17
2022-12-12T06:44:19.161Z,1.26
2022-12-12T06:48:21.217Z,1.21
2022-12-12T06:52:23.224Z,1.28
2022-12-12T06:56:26.736Z,1.42
2022-12-12T07:00:28.739Z,1.41
2022-12-12T07:04:30.769Z,1.34
2022-12-12T07:08:34.633Z,1.35
2022-12-12T07:12:36.622Z,1.36
2022-12-12T07:16:39.179Z,1.40
2022-12-12T07:20:43.071Z,1.39
2022-12-12T07:24:45.054Z,1.37
2022-12-12T07:28:48.017Z,1.40
2022-12-12T07:32:51.866Z,1.43
2022-12-12T07:36:59.225Z,1.54
2022-12-12T07:41:07.536Z,1.63
2022-12-12T07:45:15.003Z,1.65
2022-12-12T07:49:20.019Z,1.60
2022-12-12T07:53:22.034Z,1.51
2022-12-12T07:57:24.031Z,1.32
2022-12-12T08:01:27.292Z,1.33
2022-12-12T08:05:29.302Z,1.33
2022-12-12T08:09:31.525Z,1.48
2022-12-12T08:13:36.071Z,1.64
2022-12-12T08:17:38.058Z,1.67
2022-12-12T08:21:40.048Z,1.68
2022-12-12T08:25:42.986Z,1.69
2022-12-12T08:29:45.044Z,1.82
2022-12-12T08:33:47.962Z,1.89
2022-12-12T08:37:50.930Z,1.91
2022-12-12T08:41:53.241Z,1.99
2022-12-12T08:46:02.946Z,1.96
2022-12-12T08:50:06.251Z,1.92
2022-12-12T08:54:09.935Z,2.03
2022-12-12T08:58:12.032Z,2.08
2022-12-12T09:02:14.594Z,2.15
2022-12-12T09:06:17.607Z,2.28
2022-12-12T09:10:19.986Z,2.33
2022-12-12T09:14:22.006Z,2.34
2022-12-12T09:18:24.400Z,2.36
2022-12-12T09:22:26.430Z,2.43
2022-12-12T09:26:28.452Z,2.45
2022-12-12T09:30:30.502Z,2.37
2022-12-12T09:34:33.772Z,2.43
2022-12-12T09:38:36.634Z,2.59
2022-12-12T09:42:46.270Z,2.80
2022-12-12T09:46:53.183Z,2.81
2022-12-12T09:50:55.252Z,2.72
2022-12-12T09:54:59.680Z,2.60
2022-12-12T09:59:18.984Z,2.54
2022-12-12T10:03:24.144Z,2.45
2022-12-12T10:07:42.814Z,2.15
2022-12-12T10:11:51.247Z,1.97
2022-12-12T10:16:03.043Z,1.81
2022-12-12T10:20:14.413Z,1.87
2022-12-12T10:24:33.119Z,2.13
2022-12-12T10:28:35.777Z,2.23
2022-12-12T10:32:53.363Z,2.02
2022-12-12T10:37:26.115Z,1.68
2022-12-12T10:41:42.234Z,1.45
2022-12-12T10:45:56.686Z,1.12
2022-12-12T10:50:20.574Z,0.99
2022-12-12T10:54:26.284Z,0.88
2022-12-12T10:58:37.487Z,1.07
2022-12-12T11:02:44.217Z,1.26
2022-12-12T11:06:50.666Z,1.53
2022-12-12T11:11:22.764Z,1.72
2022-12-12T11:15:32.001Z,1.82
2022-12-12T11:19:38.899Z,1.82
2022-12-12T11:23:50.327Z,1.79
2022-12-12T11:27:53.627Z,1.87
2022-12-12T11:31:56.876Z,1.97
2022-12-12T11:36:01.068Z,1.95
2022-12-12T11:40:07.419Z,1.90
2022-12-12T11:44:24.156Z,1.94
2022-12-12T11:48:48.433Z,2.08
2022-12-12T11:52:53.732Z,2.40
2022-12-12T11:57:02.082Z,2.64
2022-12-12T12:01:11.912Z,2.61
2022-12-12T12:05:25.911Z,2.50
2022-12-12T12:09:31.509Z,2.45
2022-12-12T12:14:15.193Z,2.39
2022-12-12T12:18:37.247Z,2.19
2022-12-12T12:22:51.635Z,2.04
2022-12-12T12:27:08.689Z,1.96
2022-12-12T12:31:25.919Z,1.87
2022-12-12T12:35:30.917Z,1.86
2022-12-12T12:39:59.396Z,1.82
2022-12-12T12:44:26.646Z,1.78
2022-12-12T12:48:34.666Z,1.70
2022-12-12T12:52:43.306Z,1.65
2022-12-12T12:57:04.191Z,1.38
2022-12-12T13:01:14.653Z,1.16
2022-12-12T13:05:24.318Z,1.05
2022-12-12T13:09:41.974Z,1.05
2022-12-12T13:13:47.800Z,0.95
2022-12-12T13:18:01.582Z,0.83
2022-12-12T13:22:24.401Z,0.83
2022-12-12T13:26:41.795Z,0.92
2022-12-12T13:30:55.683Z,0.91
2022-12-12T13:35:03.894Z,0.78
2022-12-12T13:39:09.039Z,0.72
2022-12-12T13:43:34.073Z,0.76
2022-12-12T13:47:36.060Z,0.72
2022-12-12T13:51:42.289Z,0.61
2022-12-12T13:55:44.462Z,0.41
2022-12-12T13:59:52.738Z,0.29
2022-12-12T14:03:55.016Z,0.22
2022-12-12T14:08:08.391Z,0.17
2022-12-12T14:12:29.150Z,0.08
2022-12-12T14:16:36.002Z,-0.04
2022-12-12T14:21:00.223Z,-0.06
2022-12-12T14:25:07.348Z,0.02
2022-12-12T14:29:15.399Z,0.03
2022-12-12T14:33:17.327Z,-0.05
2022-12-12T14:37:28.356Z,-0.13
2022-12-12T14:41:35.943Z,-0.14
2022-12-12T14:45:51.280Z,-0.08
2022-12-12T14:50:17.312Z,-0.01
2022-12-12T14:54:21.693Z,-0.01
2022-12-12T14:58:27.957Z,-0.08
2022-12-12T15:02:35.283Z,-0.15
2022-12-12T15:06:45.357Z,-0.23
2022-12-12T15:10:59.464Z,-0.43
2022-12-12T15:15:01.951Z,-0.58
2022-12-12T15:19:04.173Z,-0.57
2022-12-12T15:23:07.401Z,-0.56
2022-12-12T15:27:19.819Z,-0.56
2022-12-12T15:31:22.584Z,-0.63
2022-12-12T15:35:25.039Z,-0.75
2022-12-12T15:39:27.333Z,-0.85
2022-12-12T15:43:31.010Z,-0.87
2022-12-12T15:47:33.745Z,-0.93
2022-12-12T15:51:35.789Z,-1.10
2022-12-12T15:55:37.963Z,-1.25
2022-12-12T15:59:40.647Z,-1.27
2022-12-12T16:04:02.877Z,-1.26
2022-12-12T16:08:36.294Z,-1.28
2022-12-12T16:13:22.072Z,-1.34
2022-12-12T16:17:25.600Z,-1.28
2022-12-12T16:21:28.628Z,-1.40
2022-12-12T16:25:33.995Z,-1.57
2022-12-12T16:29:36.501Z,-1.59
2022-12-12T16:33:40.219Z,-1.56
2022-12-12T16:37:42.500Z,-1.59
2022-12-12T16:41:44.671Z,-1.63
2022-12-12T16:45:49.459Z,-1.68
2022-12-12T16:49:51.980Z,-1.76
2022-12-12T16:53:55.226Z,-1.71
2022-12-12T16:57:57.238Z,-1.74
2022-12-12T17:01:59.549Z,-1.66
2022-12-12T17:06:01.947Z,-1.69
2022-12-12T17:10:04.714Z,-1.61
2022-12-12T17:14:06.773Z,-1.69
2022-12-12T17:18:09.052Z,-1.79
2022-12-12T17:22:11.129Z,-1.88
2022-12-12T17:26:13.293Z,-1.89
2022-12-12T17:30:16.269Z,-1.89
2022-12-12T17:34:18.521Z,-1.91
2022-12-12T17:38:20.541Z,-1.92
2022-12-12T17:42:22.709Z,-1.92
2022-12-12T17:46:27.695Z,-1.90
2022-12-12T17:50:29.739Z,-1.99
2022-12-12T17:54:32.346Z,-2.16
2022-12-12T17:58:36.497Z,-2.38
2022-12-12T18:02:39.848Z,-2.52
2022-12-12T18:06:41.834Z,-2.57
2022-12-12T18:10:43.838Z,-2.60
2022-12-12T18:14:46.136Z,-2.58
2022-12-12T18:18:50.382Z,-2.68
2022-12-12T18:22:55.045Z,-2.79
2022-12-12T18:26:59.172Z,-2.81
2022-12-12T18:31:02.502Z,-2.81
2022-12-12T18:35:05.006Z,-3.00
2022-12-12T18:39:07.371Z,-3.03
2022-12-12T18:43:09.437Z,-3.05
2022-12-12T18:47:11.853Z,-3.06
2022-12-12T18:51:15.869Z,-3.03
2022-12-12T18:55:18.090Z,-3.09
2022-12-12T18:59:20.096Z,-3.11
2022-12-12T19:03:22.174Z,-3.11
2022-12-12T19:07:24.275Z,-3.17
2022-12-12T19:11:26.250Z,-3.33
2022-12-12T19:15:28.482Z,-3.44
2022-12-12T19:19:30.963Z,-3.43
2022-12-12T19:23:33.564Z,-3.51
2022-12-12T19:27:35.595Z,-3.60
2022-12-12T19:31:37.684Z,-3.68
2022-12-12T19:35:39.773Z,-3.73
2022-12-12T19:39:41.952Z,-3.77
2022-12-12T19:43:45.760Z,-3.74
2022-12-12T19:47:47.818Z,-3.68
2022-12-12T19:51:49.850Z,-3.67
2022-12-12T19:55:52.081Z,-3.81
2022-12-12T19:59:54.204Z,-4.06
2022-12-12T20:04:01.136Z,-4.05
2022-12-12T20:08:03.249Z,-4.15
2022-12-12T20:12:05.527Z,-4.12
2022-12-12T20:16:10.895Z,-3.98
2022-12-12T20:20:13.200Z,-3.81
2022-12-12T20:24:17.393Z,-3.66
2022-12-12T20:28:19.435Z,-3.48
2022-12-12T20:32:21.481Z,-3.34
2022-12-12T20:36:31.336Z,-3.24
2022-12-12T20:40:39.247Z,-2.96
2022-12-12T20:44:41.302Z,-2.80
2022-12-12T20:48:43.940Z,-2.77
2022-12-12T20:52:46.019Z,-2.67
2022-12-12T20:56:50.868Z,-2.62
2022-12-12T21:00:52.884Z,-2.72
2022-12-12T21:04:54.917Z,-2.76
2022-12-12T21:09:00.487Z,-2.66
2022-12-12T21:13:02.639Z,-2.66
2022-12-12T21:17:05.002Z,-2.70
2022-12-12T21:21:10.865Z,-2.82
2022-12-12T21:25:13.186Z,-2.85
2022-12-12T21:29:16.209Z,-2.88
2022-12-12T21:33:18.253Z,-2.89
2022-12-12T21:37:20.317Z,-2.78
2022-12-12T21:41:23.135Z,-2.83
2022-12-12T21:45:25.197Z,-2.80
2022-12-12T21:49:27.713Z,-2.84
2022-12-12T21:53:36.014Z,-2.70
2022-12-12T21:57:38.081Z,-2.68
2022-12-12T22:01:40.908Z,-2.84
2022-12-12T22:05:43.137Z,-2.90
2022-12-12T22:09:45.191Z,-2.91
2022-12-12T22:14:08.318Z,-2.96
2022-12-12T22:18:10.359Z,-2.86
2022-12-12T22:22:13.470Z,-3.03
2022-12-12T22:26:27.681Z,-3.25
2022-12-12T22:30:29.673Z,-3.32
2022-12-12T22:34:31.698Z,-3.34
2022-12-12T22:38:38.016Z,-3.46
2022-12-12T22:42:40.535Z,-3.45
2022-12-12T22:46:47.609Z,-3.52
2022-12-12T22:50:49.714Z,-3.56
2022-12-12T22:54:51.866Z,-3.78
2022-12-12T22:58:54.257Z,-3.89
2022-12-12T23:02:56.241Z,-3.95
2022-12-12T23:06:58.251Z,-3.93
2022-12-12T23:11:13.150Z,-3.82
2022-12-12T23:15:15.830Z,-3.87
2022-12-12T23:19:21.118Z,-4.07
2022-12-12T23:23:23.162Z,-4.11
2022-12-12T23:27:25.264Z,-4.01
2022-12-12T23:31:30.221Z,-3.89
2022-12-12T23:35:32.334Z,-3.89
2022-12-12T23:39:34.382Z,-4.00
2022-12-12T23:43:36.803Z,-4.09
2022-12-12T23:47:38.843Z,-4.35
2022-12-12T23:51:50.017Z,-4.53
2022-12-12T23:55:52.069Z,-4.45
2022-12-12T23:59:54.050Z,-4.38
